createdAt,value
2019-06-27T00:00:48.866Z,13.70
2019-06-27T00:03:36.974Z,13.17
2019-06-27T00:06:27.073Z,14.27
2019-06-27T00:09:16.784Z,12.63
2019-06-27T00:12:06.220Z,14.20
2019-06-27T00:14:53.680Z,14.07
2019-06-27T00:17:42.415Z,13.57
2019-06-27T00:20:31.092Z,13.33
2019-06-27T00:23:19.283Z,13.77
2019-06-27T00:26:08.154Z,14.70
2019-06-27T00:28:56.253Z,13.60
2019-06-27T00:31:45.449Z,14.10
2019-06-27T00:34:34.197Z,13.57
2019-06-27T00:37:23.259Z,13.03
2019-06-27T00:40:13.067Z,13.97
2019-06-27T00:43:00.024Z,14.37
2019-06-27T00:45:49.259Z,13.30
2019-06-27T00:48:37.869Z,13.30
2019-06-27T00:51:26.846Z,13.20
2019-06-27T00:54:14.860Z,14.83
2019-06-27T00:57:13.575Z,12.80
2019-06-27T00:59:53.959Z,13.47
2019-06-27T01:02:42.686Z,12.90
2019-06-27T01:05:31.125Z,13.40
2019-06-27T01:08:20.154Z,12.40
2019-06-27T01:11:09.025Z,13.17
2019-06-27T01:13:58.029Z,13.37
2019-06-27T01:16:46.550Z,13.17
2019-06-27T01:19:35.778Z,12.47
2019-06-27T01:22:23.880Z,15.10
2019-06-27T01:25:12.080Z,12.77
2019-06-27T01:28:00.458Z,13.23
2019-06-27T01:30:49.168Z,13.30
2019-06-27T01:33:37.928Z,14.47
2019-06-27T01:36:27.453Z,13.83
2019-06-27T01:39:15.700Z,14.50
2019-06-27T01:42:05.124Z,13.63
2019-06-27T01:44:58.869Z,13.90
2019-06-27T01:47:47.239Z,13.13
2019-06-27T01:50:36.028Z,14.23
2019-06-27T01:53:24.317Z,13.37
2019-06-27T01:56:13.723Z,13.50
2019-06-27T01:59:03.519Z,12.60
2019-06-27T02:01:51.959Z,14.10
2019-06-27T02:04:40.609Z,13.97
2019-06-27T02:07:30.323Z,13.27
2019-06-27T02:10:19.680Z,13.37
2019-06-27T02:13:09.283Z,14.93
2019-06-27T02:15:58.313Z,15.03
2019-06-27T02:18:47.643Z,14.70
2019-06-27T02:21:36.116Z,14.10
2019-06-27T02:24:24.797Z,14.50
2019-06-27T02:27:12.927Z,14.50
2019-06-27T02:30:01.110Z,13.87
2019-06-27T02:32:49.555Z,14.80
2019-06-27T02:35:38.985Z,14.60
2019-06-27T02:38:28.067Z,15.20
2019-06-27T02:41:17.740Z,14.13
2019-06-27T02:44:08.534Z,14.67
2019-06-27T02:46:57.298Z,14.50
2019-06-27T02:49:50.279Z,14.00
2019-06-27T02:52:37.148Z,13.17
2019-06-27T02:55:26.093Z,14.40
2019-06-27T02:58:29.694Z,14.03
2019-06-27T03:01:11.502Z,14.40
2019-06-27T03:04:00.460Z,13.00
2019-06-27T03:06:54.412Z,14.47
2019-06-27T03:09:43.635Z,15.13
2019-06-27T03:12:32.885Z,13.43
2019-06-27T03:15:21.249Z,14.60
2019-06-27T03:18:10.649Z,15.37
2019-06-27T03:21:00.445Z,12.63
2019-06-27T03:23:49.177Z,14.43
2019-06-27T03:26:37.843Z,14.90
2019-06-27T03:29:26.813Z,15.33
2019-06-27T03:32:15.747Z,15.07
2019-06-27T03:35:03.956Z,13.93
2019-06-27T03:37:53.800Z,15.27
2019-06-27T03:40:42.809Z,14.03
2019-06-27T03:43:32.451Z,13.50
2019-06-27T03:46:20.801Z,14.97
2019-06-27T03:49:09.545Z,14.53
2019-06-27T03:51:57.579Z,14.17
2019-06-27T03:54:46.373Z,13.80
2019-06-27T03:57:35.055Z,13.57
2019-06-27T04:00:27.324Z,15.30
2019-06-27T04:03:16.054Z,15.70
2019-06-27T04:06:04.289Z,15.87
2019-06-27T04:08:53.805Z,17.00
2019-06-27T04:11:43.927Z,15.43
2019-06-27T04:14:32.284Z,15.20
2019-06-27T04:17:21.347Z,13.97
2019-06-27T04:20:09.847Z,13.87
2019-06-27T04:22:58.617Z,15.33
2019-06-27T04:25:46.997Z,15.03
2019-06-27T04:28:35.532Z,13.77
2019-06-27T04:31:23.830Z,14.70
2019-06-27T04:34:12.185Z,14.93
2019-06-27T04:37:01.396Z,14.70
2019-06-27T04:39:49.800Z,14.20
2019-06-27T04:42:39.357Z,14.73
2019-06-27T04:45:28.504Z,15.20
2019-06-27T04:48:16.689Z,15.30
2019-06-27T04:51:05.360Z,15.53
2019-06-27T04:53:53.520Z,15.70
2019-06-27T04:56:42.364Z,13.60
2019-06-27T04:59:48.119Z,15.27
2019-06-27T05:02:21.664Z,15.00
2019-06-27T05:05:10.195Z,14.93
2019-06-27T05:08:00.087Z,13.20
2019-06-27T05:10:48.450Z,13.70
2019-06-27T05:13:37.878Z,12.33
2019-06-27T05:16:26.231Z,12.57
2019-06-27T05:19:15.754Z,12.40
2019-06-27T05:22:03.961Z,11.63
2019-06-27T05:24:52.830Z,10.50
2019-06-27T05:27:40.778Z,11.60
2019-06-27T05:30:29.548Z,10.83
2019-06-27T05:33:17.726Z,10.70
2019-06-27T05:36:07.486Z,11.43
2019-06-27T05:38:55.533Z,10.33
2019-06-27T05:41:44.228Z,11.00
2019-06-27T05:44:33.994Z,10.47
2019-06-27T05:47:22.770Z,10.73
2019-06-27T05:50:11.237Z,10.20
2019-06-27T05:53:00.270Z,10.30
2019-06-27T05:55:48.980Z,10.27
2019-06-27T05:58:38.282Z,10.10
2019-06-27T06:01:28.554Z,11.30
2019-06-27T06:04:17.398Z,10.30
2019-06-27T06:07:06.751Z,11.17
2019-06-27T06:09:55.866Z,9.90
2019-06-27T06:12:44.683Z,10.20
2019-06-27T06:15:33.751Z,8.93
2019-06-27T06:18:28.337Z,8.90
2019-06-27T06:21:17.726Z,10.20
2019-06-27T06:24:06.551Z,9.77
2019-06-27T06:26:54.916Z,9.00
2019-06-27T06:29:43.973Z,8.40
2019-06-27T06:32:32.287Z,9.60
2019-06-27T06:35:21.883Z,8.80
2019-06-27T06:38:11.073Z,8.87
2019-06-27T06:41:00.202Z,9.10
2019-06-27T06:43:49.563Z,9.07
2019-06-27T06:46:38.546Z,9.33
2019-06-27T06:49:27.198Z,8.60
2019-06-27T06:52:15.548Z,8.70
2019-06-27T06:55:04.363Z,8.53
2019-06-27T06:57:54.029Z,9.10
2019-06-27T07:01:00.910Z,8.97
2019-06-27T07:03:39.034Z,8.90
2019-06-27T07:06:27.627Z,8.60
2019-06-27T07:09:17.230Z,10.07
2019-06-27T07:12:06.391Z,9.60
2019-06-27T07:14:54.762Z,8.83
2019-06-27T07:17:43.698Z,8.40
2019-06-27T07:20:32.566Z,8.80
2019-06-27T07:23:21.334Z,8.23
2019-06-27T07:26:09.412Z,9.20
2019-06-27T07:28:58.195Z,8.53
2019-06-27T07:31:46.327Z,8.83
2019-06-27T07:34:34.990Z,9.27
2019-06-27T07:37:23.858Z,9.07
2019-06-27T07:40:12.620Z,9.47
2019-06-27T07:43:01.697Z,9.70
2019-06-27T07:45:50.370Z,8.70
2019-06-27T07:48:39.521Z,9.93
2019-06-27T07:51:28.372Z,8.17
2019-06-27T07:54:17.114Z,9.00
2019-06-27T07:57:06.714Z,10.70
2019-06-27T07:59:55.629Z,9.70
2019-06-27T08:02:44.454Z,9.67
2019-06-27T08:05:33.003Z,9.10
2019-06-27T08:08:22.777Z,9.80
2019-06-27T08:11:11.904Z,8.93
2019-06-27T08:14:01.936Z,9.30
2019-06-27T08:16:50.135Z,9.63
2019-06-27T08:19:45.687Z,8.87
2019-06-27T08:22:34.922Z,10.23
2019-06-27T08:25:23.723Z,9.97
2019-06-27T08:28:12.502Z,9.10
2019-06-27T08:31:00.540Z,9.90
2019-06-27T08:33:49.203Z,8.97
2019-06-27T08:36:37.810Z,9.80
2019-06-27T08:39:26.463Z,9.20
2019-06-27T08:42:15.499Z,9.23
2019-06-27T08:45:04.351Z,9.03
2019-06-27T08:47:52.902Z,9.97
2019-06-27T08:50:42.203Z,9.20
2019-06-27T08:53:30.483Z,8.83
2019-06-27T08:56:19.650Z,8.77
2019-06-27T08:59:09.542Z,8.63
2019-06-27T09:02:08.573Z,8.83
2019-06-27T09:04:50.026Z,9.23
2019-06-27T09:07:40.113Z,10.40
2019-06-27T09:10:34.017Z,9.60
2019-06-27T09:13:24.554Z,10.23
2019-06-27T09:16:13.758Z,10.53
2019-06-27T09:19:03.149Z,10.90
2019-06-27T09:21:53.517Z,9.73
2019-06-27T09:24:42.216Z,9.10
2019-06-27T09:27:30.622Z,10.27
2019-06-27T09:30:21.450Z,11.07
2019-06-27T09:33:10.608Z,10.07
2019-06-27T09:36:01.779Z,10.00
2019-06-27T09:38:57.462Z,10.37
2019-06-27T09:41:47.521Z,10.90
2019-06-27T09:44:37.911Z,11.10
2019-06-27T09:47:26.579Z,11.77
2019-06-27T09:50:21.270Z,10.80
2019-06-27T09:53:09.952Z,11.27
2019-06-27T09:56:00.487Z,10.30
2019-06-27T09:58:53.388Z,9.73
2019-06-27T10:01:42.367Z,8.63
2019-06-27T10:04:32.390Z,9.57
2019-06-27T10:07:21.326Z,10.33
2019-06-27T10:10:09.679Z,9.60
2019-06-27T10:12:59.600Z,8.73
2019-06-27T10:15:48.535Z,9.70
2019-06-27T10:18:38.044Z,8.70
2019-06-27T10:21:26.764Z,9.50
2019-06-27T10:24:15.524Z,8.90
2019-06-27T10:27:03.828Z,9.33
2019-06-27T10:29:52.592Z,8.60
2019-06-27T10:32:54.406Z,9.03
2019-06-27T10:35:32.975Z,9.40
2019-06-27T10:38:21.507Z,7.63
2019-06-27T10:41:11.094Z,9.50
2019-06-27T10:44:00.216Z,8.30
2019-06-27T10:46:48.871Z,7.20
2019-06-27T10:49:37.761Z,7.60
2019-06-27T10:52:26.326Z,8.10
2019-06-27T10:55:15.480Z,6.60
2019-06-27T10:58:05.298Z,5.73
2019-06-27T11:00:55.761Z,6.10
2019-06-27T11:03:45.527Z,5.10
2019-06-27T11:06:34.488Z,5.80
2019-06-27T11:09:23.573Z,6.10
2019-06-27T11:12:12.912Z,4.67
2019-06-27T11:15:01.188Z,5.33
2019-06-27T11:20:38.337Z,5.30
2019-06-27T11:23:26.739Z,5.77
2019-06-27T11:26:15.191Z,6.03
2019-06-27T11:29:03.316Z,6.37
2019-06-27T11:31:52.222Z,5.73
2019-06-27T11:34:41.060Z,6.17
2019-06-27T11:37:30.160Z,5.37
2019-06-27T11:40:19.258Z,5.87
2019-06-27T11:43:07.923Z,5.57
2019-06-27T11:45:57.639Z,5.60
2019-06-27T11:48:46.464Z,5.27
2019-06-27T11:51:34.750Z,5.80
2019-06-27T11:54:23.380Z,6.30
2019-06-27T11:57:12.467Z,6.40
2019-06-27T12:00:02.863Z,5.57
2019-06-27T12:02:52.425Z,8.10
2019-06-27T12:05:41.361Z,6.67
2019-06-27T12:08:31.006Z,6.97
2019-06-27T12:11:20.107Z,7.40
2019-06-27T12:14:09.606Z,7.13
2019-06-27T12:17:02.474Z,7.47
2019-06-27T12:19:51.661Z,8.30
2019-06-27T12:22:40.140Z,7.10
2019-06-27T12:25:28.583Z,7.03
2019-06-27T12:28:16.796Z,7.10
2019-06-27T12:31:19.368Z,7.07
2019-06-27T12:37:09.918Z,7.90
2019-06-27T12:42:54.400Z,7.03
2019-06-27T12:45:43.435Z,5.47
2019-06-27T12:48:31.799Z,5.80
2019-06-27T12:51:20.047Z,5.60
2019-06-27T12:54:08.260Z,4.30
2019-06-27T12:56:57.786Z,4.00
2019-06-27T12:59:46.795Z,3.60
2019-06-27T13:02:36.130Z,3.30
2019-06-27T13:05:24.802Z,2.87
2019-06-27T13:08:14.417Z,3.10
2019-06-27T13:11:03.379Z,3.20
2019-06-27T13:13:54.452Z,2.70
2019-06-27T13:16:42.742Z,3.00
2019-06-27T13:19:31.991Z,2.73
2019-06-27T13:22:58.433Z,3.00
2019-06-27T13:25:58.882Z,2.30
2019-06-27T13:29:13.769Z,2.40
2019-06-27T13:32:04.899Z,2.47
2019-06-27T13:34:53.986Z,3.10
2019-06-27T13:37:44.090Z,2.57
2019-06-27T13:40:33.339Z,2.90
2019-06-27T13:43:25.117Z,2.60
2019-06-27T13:46:14.083Z,2.30
2019-06-27T13:49:03.162Z,3.03
2019-06-27T13:51:51.511Z,2.60
2019-06-27T13:54:41.299Z,3.20
2019-06-27T13:57:31.731Z,2.83
2019-06-27T14:00:24.421Z,2.40
2019-06-27T14:03:12.737Z,2.33
2019-06-27T14:06:01.748Z,2.13
2019-06-27T14:08:52.143Z,2.63
2019-06-27T14:11:43.344Z,1.77
2019-06-27T14:14:32.264Z,1.77
2019-06-27T14:17:23.040Z,1.33
2019-06-27T14:20:12.404Z,1.57
2019-06-27T14:23:01.336Z,1.27
2019-06-27T14:25:50.442Z,1.30
2019-06-27T14:28:38.551Z,1.87
2019-06-27T14:31:27.881Z,1.80
2019-06-27T14:34:16.276Z,1.03
2019-06-27T14:37:05.335Z,1.27
2019-06-27T14:39:56.624Z,1.40
2019-06-27T14:42:45.906Z,1.00
2019-06-27T14:45:35.826Z,1.40
2019-06-27T14:48:24.761Z,1.20
2019-06-27T14:51:13.194Z,0.97
2019-06-27T14:54:01.762Z,0.80
2019-06-27T14:56:50.962Z,0.90
2019-06-27T14:59:39.781Z,1.00
2019-06-27T15:02:29.338Z,0.90
2019-06-27T15:05:31.745Z,1.20
2019-06-27T15:08:09.139Z,4.80
2019-06-27T15:10:58.327Z,1.50
2019-06-27T15:13:47.776Z,1.40
2019-06-27T15:16:36.060Z,1.10
2019-06-27T15:19:25.408Z,1.80
2019-06-27T15:22:14.624Z,1.27
2019-06-27T15:25:02.903Z,1.63
2019-06-27T15:27:51.298Z,1.33
2019-06-27T15:30:39.667Z,1.37
2019-06-27T15:33:28.011Z,2.40
2019-06-27T15:36:16.838Z,1.30
2019-06-27T15:39:05.608Z,1.33
2019-06-27T15:41:55.420Z,1.80
2019-06-27T15:44:44.729Z,2.27
2019-06-27T15:47:33.839Z,1.30
2019-06-27T15:50:23.192Z,1.40
2019-06-27T15:53:11.485Z,1.23
2019-06-27T15:56:00.584Z,1.43
2019-06-27T15:58:50.367Z,1.60
2019-06-27T16:01:39.795Z,1.40
2019-06-27T16:04:34.067Z,1.57
2019-06-27T16:07:19.444Z,1.93
2019-06-27T16:10:08.445Z,1.50
2019-06-27T16:12:57.618Z,2.00
2019-06-27T16:15:46.837Z,1.43
2019-06-27T16:18:36.148Z,1.40
2019-06-27T16:21:25.275Z,1.50
2019-06-27T16:24:13.393Z,2.13
2019-06-27T16:27:01.737Z,1.73
2019-06-27T16:29:50.085Z,1.67
2019-06-27T16:32:38.980Z,1.43
2019-06-27T16:35:28.795Z,1.70
2019-06-27T16:38:18.378Z,1.23
2019-06-27T16:41:07.435Z,1.30
2019-06-27T16:43:57.244Z,1.37
2019-06-27T16:46:46.265Z,1.33
2019-06-27T16:49:34.688Z,1.47
2019-06-27T16:52:23.681Z,1.43
2019-06-27T16:55:12.474Z,1.40
2019-06-27T16:58:00.916Z,1.27
2019-06-27T17:00:55.995Z,1.80
2019-06-27T17:03:45.504Z,1.63
2019-06-27T17:06:42.233Z,1.20
2019-06-27T17:09:24.462Z,1.47
2019-06-27T17:12:14.505Z,1.67
2019-06-27T17:15:02.738Z,1.50
2019-06-27T17:17:52.060Z,4.90
2019-06-27T17:20:40.077Z,3.20
2019-06-27T17:23:28.375Z,1.50
2019-06-27T17:26:16.438Z,1.83
2019-06-27T17:29:04.781Z,1.60
2019-06-27T17:31:52.855Z,1.50
2019-06-27T17:34:41.467Z,1.50
2019-06-27T17:37:30.819Z,1.77
2019-06-27T17:40:21.287Z,1.57
2019-06-27T17:43:10.599Z,1.33
2019-06-27T17:46:00.024Z,1.50
2019-06-27T17:48:49.123Z,1.60
2019-06-27T17:51:37.818Z,1.50
2019-06-27T17:54:27.057Z,1.57
2019-06-27T17:57:15.320Z,1.57
2019-06-27T18:00:05.313Z,1.40
2019-06-27T18:02:55.015Z,1.67
2019-06-27T18:05:43.391Z,2.27
2019-06-27T18:08:33.216Z,4.63
2019-06-27T18:11:22.396Z,18.83
2019-06-27T18:14:11.809Z,17.30
2019-06-27T18:17:03.924Z,2.10
2019-06-27T18:19:52.872Z,1.70
2019-06-27T18:22:40.942Z,1.70
2019-06-27T18:25:29.339Z,1.97
2019-06-27T18:28:17.715Z,1.63
2019-06-27T18:31:06.797Z,1.50
2019-06-27T18:33:55.069Z,1.70
2019-06-27T18:36:44.115Z,1.70
2019-06-27T18:39:33.692Z,2.17
2019-06-27T18:42:23.054Z,2.20
2019-06-27T18:45:12.418Z,1.70
2019-06-27T18:48:01.626Z,1.60
2019-06-27T18:50:50.386Z,1.83
2019-06-27T18:53:39.203Z,2.10
2019-06-27T18:56:28.106Z,2.80
2019-06-27T18:59:17.487Z,1.83
2019-06-27T19:02:06.610Z,2.00
2019-06-27T19:04:55.031Z,1.90
2019-06-27T19:07:46.346Z,2.00
2019-06-27T19:10:35.904Z,1.57
2019-06-27T19:13:25.169Z,1.87
2019-06-27T19:16:13.519Z,1.87
2019-06-27T19:19:05.419Z,2.00
2019-06-27T19:22:22.143Z,2.33
2019-06-27T19:25:32.404Z,1.80
2019-06-27T19:28:21.471Z,2.07
2019-06-27T19:31:09.485Z,2.10
2019-06-27T19:33:58.499Z,2.93
2019-06-27T19:36:47.849Z,1.93
2019-06-27T19:39:37.459Z,1.87
2019-06-27T19:42:26.878Z,2.33
2019-06-27T19:45:16.668Z,2.23
2019-06-27T19:48:05.803Z,2.83
2019-06-27T19:50:54.092Z,2.33
2019-06-27T19:53:42.462Z,1.90
2019-06-27T19:56:31.971Z,1.90
2019-06-27T19:59:25.102Z,1.90
2019-06-27T20:02:11.802Z,2.00
2019-06-27T20:04:59.971Z,1.53
2019-06-27T20:07:49.200Z,1.93
2019-06-27T20:10:38.414Z,2.07
2019-06-27T20:13:27.621Z,2.30
2019-06-27T20:16:16.199Z,2.10
2019-06-27T20:19:05.989Z,2.23
2019-06-27T20:21:54.058Z,2.30
2019-06-27T20:24:43.007Z,2.90
2019-06-27T20:27:31.864Z,2.00
2019-06-27T20:30:20.863Z,1.90
2019-06-27T20:33:09.490Z,1.97
2019-06-27T20:35:58.637Z,2.10
2019-06-27T20:38:47.143Z,2.33
2019-06-27T20:41:42.790Z,2.17
2019-06-27T20:44:32.170Z,2.07
2019-06-27T20:47:20.543Z,2.50
2019-06-27T20:50:09.427Z,2.90
2019-06-27T20:52:57.928Z,4.30
2019-06-27T20:55:47.046Z,3.03
2019-06-27T20:58:38.018Z,2.00
2019-06-27T21:01:27.004Z,2.53
2019-06-27T21:04:15.278Z,2.70
2019-06-27T21:07:04.699Z,2.40
2019-06-27T21:09:53.982Z,3.10
2019-06-27T21:12:45.101Z,2.43
2019-06-27T21:15:35.671Z,2.37
2019-06-27T21:18:25.151Z,1.70
2019-06-27T21:21:14.003Z,2.20
2019-06-27T21:24:02.900Z,2.30
2019-06-27T21:26:51.019Z,1.93
2019-06-27T21:29:39.791Z,2.83
2019-06-27T21:32:31.722Z,2.23
2019-06-27T21:35:24.980Z,2.13
2019-06-27T21:38:14.455Z,2.60
2019-06-27T21:41:03.483Z,3.43
2019-06-27T21:43:53.606Z,3.40
2019-06-27T21:46:42.403Z,2.20
2019-06-27T21:49:30.807Z,2.47
2019-06-27T21:52:19.151Z,2.87
2019-06-27T21:55:08.486Z,2.00
2019-06-27T21:57:59.989Z,2.73
2019-06-27T22:00:48.536Z,2.20
2019-06-27T22:03:38.066Z,2.90
2019-06-27T22:06:26.766Z,2.40
2019-06-27T22:09:24.501Z,2.10
2019-06-27T22:12:06.159Z,2.30
2019-06-27T22:14:54.459Z,1.90
2019-06-27T22:17:44.111Z,2.40
2019-06-27T22:20:33.106Z,2.13
2019-06-27T22:23:21.878Z,2.40
2019-06-27T22:26:10.588Z,1.80
2019-06-27T22:28:59.203Z,2.30
2019-06-27T22:31:47.415Z,2.47
2019-06-27T22:34:35.653Z,2.30
2019-06-27T22:37:24.137Z,2.53
2019-06-27T22:40:36.721Z,2.80
2019-06-27T22:43:51.270Z,2.60
2019-06-27T22:46:58.216Z,3.03
2019-06-27T22:49:47.759Z,3.30
2019-06-27T22:52:55.250Z,4.20
2019-06-27T22:55:44.799Z,3.03
2019-06-27T22:58:34.388Z,3.23
2019-06-27T23:01:23.134Z,2.70
2019-06-27T23:04:11.274Z,3.07
2019-06-27T23:07:03.770Z,2.90
2019-06-27T23:09:56.826Z,3.17
2019-06-27T23:12:43.087Z,2.90
2019-06-27T23:15:31.464Z,3.20
2019-06-27T23:18:21.002Z,3.60
2019-06-27T23:21:09.470Z,3.17
2019-06-27T23:23:57.451Z,3.10
2019-06-27T23:26:45.490Z,2.77
2019-06-27T23:29:33.658Z,2.60
2019-06-27T23:32:22.958Z,3.07
2019-06-27T23:35:11.480Z,3.40
2019-06-27T23:38:01.207Z,3.30
2019-06-27T23:41:00.551Z,2.80
2019-06-27T23:43:50.264Z,3.60
2019-06-27T23:46:41.291Z,2.70
2019-06-27T23:49:30.287Z,2.93
2019-06-27T23:52:19.135Z,2.90
2019-06-27T23:55:08.458Z,3.20
2019-06-27T23:57:57.639Z,3.27
